X  Schließen METAR Luftfahrt Wetterdaten     LOWW Vienna International Airport
Temperatur
16°C Temperatur
1°C Taupunkt
36% Feuchtigkeit



Wind
8 km/h
5 MPS
2 M/S
4 KTS



140°
SO
Aktuelle Wetterlage

Teilweise bewölkt Teilweise bewölkt
Luftdruck 1011.92 (hPa) - 29.88 (inHg)
Sichtweite 6.2 (Meile) - 10 (Km)
Flughafen
Flughafen Code LOWW

Position : Vienna International Airport
Entfernung: 58 (Km)

Metar:
LOWW 291020Z 14004KT 070V190 9999 FEW050 16/01 Q1012 NOSIG

Zeit: 29-05-2022 12:20 CEST